Time;durP1;ratioP1;P1;durP2;ratioP2;P2;SDS_P1;SDS_P2;PMS_P1;PMS_P2;Temp;Humidity;BMP_temperature;BMP_pressure;BME280_temperature;BME280_humidity;BME280_pressure;Samples;Min_cycle;Max_cycle;Signal;HPM_P1;HPM_P2
2021/10/19 00:01:22;;;;;;;32.85;22.13;;;;;;;;;;6248193;23;20054;-59
2021/10/19 00:03:48;;;;;;;33.95;22.90;;;;;;;;;;6247890;23;20015;-58
2021/10/19 00:06:13;;;;;;;30.15;21.30;;;;;;;;;;6247538;23;20083;-58
2021/10/19 00:08:39;;;;;;;31.27;20.42;;;;;;;;;;6248017;22;20011;-59
2021/10/19 00:11:04;;;;;;;32.45;20.92;;;;;;;;;;6247857;23;20386;-62
2021/10/19 00:13:30;;;;;;;30.23;20.75;;;;;;;;;;6248142;23;20008;-63
2021/10/19 00:15:55;;;;;;;32.08;20.63;;;;;;;;;;6248116;22;19996;-63
2021/10/19 00:18:21;;;;;;;29.63;18.83;;;;;;;;;;6247905;22;20004;-62
2021/10/19 00:20:47;;;;;;;31.02;20.15;;;;;;;;;;6247724;22;19996;-58
2021/10/19 00:23:12;;;;;;;33.28;21.13;;;;;;;;;;6247626;22;20014;-59
2021/10/19 00:25:37;;;;;;;31.27;19.65;;;;;;;;;;6247740;23;20010;-59
2021/10/19 00:28:04;;;;;;;28.63;19.08;;;;;;;;;;6247781;22;20000;-58
2021/10/19 00:30:30;;;;;;;30.30;18.67;;;;;;;;;;6246138;23;20078;-58
2021/10/19 00:32:56;;;;;;;27.95;18.85;;;;;;;;;;6247385;23;20004;-58
2021/10/19 00:35:21;;;;;;;29.35;19.40;;;;;;;;;;6246151;23;20000;-58
2021/10/19 00:37:47;;;;;;;28.80;19.27;;;;;;;;;;6247605;22;20011;-59
2021/10/19 00:40:13;;;;;;;28.73;19.35;;;;;;;;;;6247444;23;20078;-58
2021/10/19 00:42:38;;;;;;;30.95;19.48;;;;;;;;;;6247133;22;20011;-63
2021/10/19 00:45:05;;;;;;;31.75;19.25;;;;;;;;;;6247541;22;20086;-63
2021/10/19 00:47:30;;;;;;;30.98;19.77;;;;;;;;;;6247502;22;20011;-63
2021/10/19 00:49:56;;;;;;;36.45;20.75;;;;;;;;;;6247644;22;19992;-58
2021/10/19 00:52:21;;;;;;;34.80;21.13;;;;;;;;;;6247604;22;20028;-58
2021/10/19 00:54:47;;;;;;;33.13;21.30;;;;;;;;;;6247429;23;20425;-58
2021/10/19 00:57:13;;;;;;;31.25;20.02;;;;;;;;;;6247506;22;20008;-59
2021/10/19 00:59:41;;;;;;;32.33;20.50;;;;;;;;;;6247022;22;20103;-58
2021/10/19 01:02:07;;;;;;;32.35;21.75;;;;;;;;;;6246927;22;20032;-58
2021/10/19 01:04:32;;;;;;;34.45;22.23;;;;;;;;;;6247384;23;19996;-58
2021/10/19 01:06:58;;;;;;;33.67;20.85;;;;;;;;;;6247783;23;20062;-62
2021/10/19 01:09:23;;;;;;;28.30;19.60;;;;;;;;;;6247212;23;19993;-63
2021/10/19 01:11:49;;;;;;;31.48;19.38;;;;;;;;;;6247204;22;20079;-62
2021/10/19 01:14:14;;;;;;;28.25;18.15;;;;;;;;;;6247725;23;19992;-62
2021/10/19 01:16:39;;;;;;;29.88;19.42;;;;;;;;;;6247332;23;20011;-62
2021/10/19 01:19:05;;;;;;;28.60;18.80;;;;;;;;;;6247432;22;19992;-62
2021/10/19 01:21:32;;;;;;;32.75;19.58;;;;;;;;;;6247477;23;20015;-62
2021/10/19 01:23:59;;;;;;;32.15;18.33;;;;;;;;;;6247138;23;20054;-62
2021/10/19 01:26:24;;;;;;;29.52;18.92;;;;;;;;;;6247362;22;20443;-63
2021/10/19 01:28:50;;;;;;;29.75;17.95;;;;;;;;;;6246955;22;19992;-63
2021/10/19 01:31:16;;;;;;;26.00;17.52;;;;;;;;;;6247249;23;20090;-63
2021/10/19 01:33:42;;;;;;;26.02;17.90;;;;;;;;;;6247538;23;20475;-63
2021/10/19 01:36:08;;;;;;;27.75;17.60;;;;;;;;;;6246254;23;20038;-62
2021/10/19 01:38:34;;;;;;;29.00;18.08;;;;;;;;;;6246822;22;20336;-63
2021/10/19 01:41:00;;;;;;;31.38;18.45;;;;;;;;;;6247754;23;20012;-63
2021/10/19 01:43:26;;;;;;;29.27;18.73;;;;;;;;;;6246881;22;20032;-58
2021/10/19 01:45:53;;;;;;;24.65;16.90;;;;;;;;;;6247009;22;20004;-58
2021/10/19 01:48:19;;;;;;;32.17;18.65;;;;;;;;;;6246671;22;20003;-58
2021/10/19 01:50:45;;;;;;;31.75;21.38;;;;;;;;;;6246693;22;20004;-58
2021/10/19 01:53:11;;;;;;;29.73;19.17;;;;;;;;;;6247030;22;20416;-58
2021/10/19 01:55:37;;;;;;;26.50;17.23;;;;;;;;;;6246747;22;20039;-58
2021/10/19 01:58:02;;;;;;;30.27;19.70;;;;;;;;;;6246754;22;19996;-58
2021/10/19 02:00:28;;;;;;;32.85;20.02;;;;;;;;;;6246651;23;20103;-58
2021/10/19 02:02:54;;;;;;;31.30;19.40;;;;;;;;;;6246738;22;20008;-58
2021/10/19 02:05:19;;;;;;;29.25;20.10;;;;;;;;;;6246857;22;20004;-58
2021/10/19 02:07:45;;;;;;;32.45;21.17;;;;;;;;;;6246745;22;19996;-58
2021/10/19 02:10:11;;;;;;;30.98;20.60;;;;;;;;;;6246587;22;20000;-58
2021/10/19 02:12:37;;;;;;;32.50;21.40;;;;;;;;;;6246686;22;19999;-58
2021/10/19 02:15:06;;;;;;;32.22;19.25;;;;;;;;;;6246609;22;20004;-58
2021/10/19 02:17:32;;;;;;;32.78;19.63;;;;;;;;;;6246622;22;20001;-58
2021/10/19 02:20:01;;;;;;;30.10;20.02;;;;;;;;;;6246908;23;20099;-58
2021/10/19 02:22:27;;;;;;;26.35;17.92;;;;;;;;;;6246989;22;19996;-58
2021/10/19 02:24:53;;;;;;;25.05;16.13;;;;;;;;;;6246475;22;20008;-58
2021/10/19 02:27:19;;;;;;;28.63;19.00;;;;;;;;;;6246313;22;19996;-58
2021/10/19 02:29:45;;;;;;;25.00;17.67;;;;;;;;;;6245476;23;20004;-61
2021/10/19 02:32:10;;;;;;;27.58;18.00;;;;;;;;;;6244675;23;20001;-61
2021/10/19 02:34:36;;;;;;;28.02;18.42;;;;;;;;;;6246459;23;20009;-61
2021/10/19 02:37:02;;;;;;;26.63;18.33;;;;;;;;;;6246328;23;19996;-61
2021/10/19 02:39:27;;;;;;;28.95;18.60;;;;;;;;;;6246362;22;20377;-62
2021/10/19 02:41:53;;;;;;;26.48;16.27;;;;;;;;;;6246413;23;20309;-61
2021/10/19 02:44:18;;;;;;;28.40;18.17;;;;;;;;;;6246129;23;20010;-62
2021/10/19 02:46:43;;;;;;;26.02;15.43;;;;;;;;;;6244799;23;20003;-61
2021/10/19 02:49:10;;;;;;;22.70;15.85;;;;;;;;;;6246452;23;20004;-61
2021/10/19 02:51:36;;;;;;;23.15;14.77;;;;;;;;;;6246196;23;19992;-61
2021/10/19 02:54:01;;;;;;;25.38;16.08;;;;;;;;;;6246293;22;20011;-58
2021/10/19 02:56:26;;;;;;;21.85;14.68;;;;;;;;;;6246283;22;20092;-58
2021/10/19 02:58:52;;;;;;;22.00;14.85;;;;;;;;;;6246075;22;20008;-59
2021/10/19 03:01:18;;;;;;;22.90;15.13;;;;;;;;;;6245974;22;20031;-58
2021/10/19 03:03:43;;;;;;;21.20;15.75;;;;;;;;;;6246184;22;20444;-58
2021/10/19 03:06:08;;;;;;;25.85;16.98;;;;;;;;;;6246363;23;20333;-58
2021/10/19 03:08:34;;;;;;;23.95;16.35;;;;;;;;;;6246394;22;20010;-61
2021/10/19 03:11:00;;;;;;;26.13;17.42;;;;;;;;;;6246619;23;19996;-62
2021/10/19 03:13:28;;;;;;;24.13;14.95;;;;;;;;;;6246843;22;20004;-58
2021/10/19 03:15:53;;;;;;;25.95;16.30;;;;;;;;;;6244705;23;20015;-58
2021/10/19 03:18:19;;;;;;;23.02;14.90;;;;;;;;;;6246415;22;20435;-61
2021/10/19 03:20:44;;;;;;;24.95;16.38;;;;;;;;;;6246438;23;20031;-62
2021/10/19 03:23:09;;;;;;;24.10;15.25;;;;;;;;;;6246272;22;20051;-62
2021/10/19 03:25:35;;;;;;;26.52;15.85;;;;;;;;;;6247385;22;20004;-62
2021/10/19 03:28:00;;;;;;;20.95;14.98;;;;;;;;;;6248057;23;20065;-62
2021/10/19 03:30:26;;;;;;;26.95;15.15;;;;;;;;;;6248343;23;20328;-62
2021/10/19 03:32:51;;;;;;;23.00;14.85;;;;;;;;;;6248406;22;20006;-62
2021/10/19 03:35:17;;;;;;;24.75;15.00;;;;;;;;;;6247991;22;20000;-62
2021/10/19 03:37:43;;;;;;;22.45;14.90;;;;;;;;;;6248592;22;20011;-58
2021/10/19 03:40:10;;;;;;;22.13;14.63;;;;;;;;;;6248719;22;20079;-62
2021/10/19 03:42:41;;;;;;;22.00;15.45;;;;;;;;;;6248239;23;20004;-62
2021/10/19 03:45:07;;;;;;;21.75;14.38;;;;;;;;;;6248293;23;20134;-62
2021/10/19 03:47:33;;;;;;;22.45;14.57;;;;;;;;;;6247968;22;20321;-59
2021/10/19 03:49:58;;;;;;;25.55;15.05;;;;;;;;;;6247993;22;20012;-58
2021/10/19 03:52:24;;;;;;;25.23;15.38;;;;;;;;;;6248100;22;19996;-58
2021/10/19 03:54:49;;;;;;;21.55;14.82;;;;;;;;;;6246126;23;20012;-58
2021/10/19 03:57:15;;;;;;;22.95;14.13;;;;;;;;;;6248306;23;20075;-58
2021/10/19 03:59:41;;;;;;;22.52;15.50;;;;;;;;;;6247638;22;20433;-58
2021/10/19 04:02:06;;;;;;;26.10;16.77;;;;;;;;;;6247758;22;20008;-58
2021/10/19 04:04:34;;;;;;;22.65;15.23;;;;;;;;;;6247846;22;20015;-58
2021/10/19 04:07:00;;;;;;;25.13;15.30;;;;;;;;;;6247732;23;19996;-58
2021/10/19 04:09:25;;;;;;;27.13;17.88;;;;;;;;;;6246405;23;20011;-58
2021/10/19 04:11:51;;;;;;;26.02;16.77;;;;;;;;;;6247792;23;19992;-58
2021/10/19 04:14:16;;;;;;;23.80;15.95;;;;;;;;;;6247896;23;20004;-58
2021/10/19 04:16:42;;;;;;;21.95;15.00;;;;;;;;;;6246274;23;20000;-62
2021/10/19 04:19:07;;;;;;;20.63;14.00;;;;;;;;;;6246110;23;20004;-59
2021/10/19 04:21:33;;;;;;;20.75;13.30;;;;;;;;;;6247735;23;19992;-58
2021/10/19 04:23:58;;;;;;;21.42;13.23;;;;;;;;;;6247730;22;20467;-58
2021/10/19 04:26:24;;;;;;;18.10;12.40;;;;;;;;;;6246133;23;20004;-58
2021/10/19 04:28:49;;;;;;;20.20;12.85;;;;;;;;;;6247557;23;20042;-59
2021/10/19 04:31:16;;;;;;;20.90;13.60;;;;;;;;;;6247573;23;20079;-62
2021/10/19 04:33:41;;;;;;;19.42;13.85;;;;;;;;;;6246334;23;20000;-62
2021/10/19 04:36:07;;;;;;;21.38;13.68;;;;;;;;;;6247525;23;20452;-63
2021/10/19 04:38:33;;;;;;;24.10;16.38;;;;;;;;;;6247363;22;20062;-62
2021/10/19 04:40:58;;;;;;;23.98;16.88;;;;;;;;;;6247833;22;20079;-63
2021/10/19 04:43:24;;;;;;;21.42;13.77;;;;;;;;;;6247308;23;20008;-63
2021/10/19 04:45:51;;;;;;;18.08;13.27;;;;;;;;;;6247830;22;20023;-63
2021/10/19 04:48:17;;;;;;;18.42;12.80;;;;;;;;;;6247280;22;20333;-63
2021/10/19 04:50:42;;;;;;;17.25;12.50;;;;;;;;;;6247364;22;19992;-63
2021/10/19 04:53:08;;;;;;;18.23;12.48;;;;;;;;;;6247722;22;20004;-63
2021/10/19 04:55:33;;;;;;;19.58;13.43;;;;;;;;;;6247147;22;20000;-62
2021/10/19 04:57:58;;;;;;;21.55;14.68;;;;;;;;;;6247151;22;20087;-63
2021/10/19 05:00:24;;;;;;;21.45;13.88;;;;;;;;;;6246973;22;20019;-63
2021/10/19 05:02:55;;;;;;;27.60;15.73;;;;;;;;;;6246838;23;20008;-63
2021/10/19 05:05:21;;;;;;;19.77;14.40;;;;;;;;;;6246961;22;20484;-63
2021/10/19 05:07:47;;;;;;;27.27;17.25;;;;;;;;;;6247167;22;19999;-63
2021/10/19 05:10:13;;;;;;;26.05;16.58;;;;;;;;;;6246612;23;20000;-63
2021/10/19 05:12:39;;;;;;;32.95;19.92;;;;;;;;;;6246865;22;20435;-63
2021/10/19 05:15:05;;;;;;;26.10;17.38;;;;;;;;;;6246743;23;20012;-63
2021/10/19 05:17:30;;;;;;;54.13;27.35;;;;;;;;;;6246718;22;20002;-63
2021/10/19 05:19:56;;;;;;;32.22;20.80;;;;;;;;;;6246863;22;20514;-63
2021/10/19 05:22:24;;;;;;;33.08;18.70;;;;;;;;;;6246937;22;19996;-63
2021/10/19 05:24:50;;;;;;;30.00;17.92;;;;;;;;;;6246407;23;20039;-63
2021/10/19 05:27:15;;;;;;;30.67;20.25;;;;;;;;;;6246921;22;19996;-63
2021/10/19 05:29:40;;;;;;;42.10;25.23;;;;;;;;;;6246750;22;20000;-63
2021/10/19 05:32:06;;;;;;;44.78;25.98;;;;;;;;;;6246468;23;20004;-63
2021/10/19 05:34:32;;;;;;;57.17;32.85;;;;;;;;;;6246616;23;20000;-63
2021/10/19 05:36:57;;;;;;;94.07;41.65;;;;;;;;;;6246438;22;20000;-63
2021/10/19 05:39:23;;;;;;;72.40;37.58;;;;;;;;;;6246453;23;20811;-63
2021/10/19 05:41:48;;;;;;;253.55;114.72;;;;;;;;;;6246552;23;20138;-63
2021/10/19 05:44:14;;;;;;;210.82;85.40;;;;;;;;;;6246299;23;20035;-63
2021/10/19 05:46:39;;;;;;;101.90;48.60;;;;;;;;;;6246731;23;20312;-62
2021/10/19 05:52:40;;;;;;;65.03;37.10;;;;;;;;;;6247194;23;20380;-62
2021/10/19 05:58:41;;;;;;;59.90;33.92;;;;;;;;;;6247163;23;20424;-63
2021/10/19 06:04:55;;;;;;;50.30;32.83;;;;;;;;;;6246988;23;20015;-63
2021/10/19 06:10:59;;;;;;;53.70;31.15;;;;;;;;;;6247084;23;19995;-63
2021/10/19 06:16:59;;;;;;;56.78;31.52;;;;;;;;;;6242671;23;20007;-62
2021/10/19 06:19:25;;;;;;;59.05;34.30;;;;;;;;;;6235392;23;20324;-63
2021/10/19 06:21:50;;;;;;;62.28;35.97;;;;;;;;;;6236774;22;20425;-63
2021/10/19 06:24:17;;;;;;;68.97;39.22;;;;;;;;;;6242527;22;20336;-63
2021/10/19 06:26:43;;;;;;;75.88;40.67;;;;;;;;;;6244701;22;20069;-63
2021/10/19 06:29:10;;;;;;;67.80;39.00;;;;;;;;;;6244754;23;20428;-63
2021/10/19 06:31:36;;;;;;;58.67;33.47;;;;;;;;;;6246374;22;20622;-63
2021/10/19 06:34:01;;;;;;;57.47;33.08;;;;;;;;;;6245376;23;20031;-63
2021/10/19 06:36:28;;;;;;;44.97;26.23;;;;;;;;;;6245983;22;20376;-63
2021/10/19 06:38:54;;;;;;;42.90;27.38;;;;;;;;;;6246411;22;20087;-63
2021/10/19 06:44:54;;;;;;;48.38;27.73;;;;;;;;;;6246669;23;20091;-63
2021/10/19 06:50:55;;;;;;;41.85;22.23;;;;;;;;;;6246733;23;20007;-63
2021/10/19 06:53:22;;;;;;;36.90;22.17;;;;;;;;;;6246351;23;20004;-63
2021/10/19 06:55:50;;;;;;;32.42;21.38;;;;;;;;;;6244845;22;20087;-63
2021/10/19 06:58:16;;;;;;;32.42;20.30;;;;;;;;;;6242244;22;20345;-63
2021/10/19 07:00:41;;;;;;;43.85;25.33;;;;;;;;;;6236447;23;20016;-63
2021/10/19 07:03:07;;;;;;;40.55;25.77;;;;;;;;;;6242542;23;20073;-63
2021/10/19 07:05:33;;;;;;;34.88;23.38;;;;;;;;;;6244283;22;20481;-63
2021/10/19 07:07:58;;;;;;;35.20;22.83;;;;;;;;;;6245565;23;20014;-58
2021/10/19 07:10:24;;;;;;;24.70;17.45;;;;;;;;;;6245629;22;20002;-58
2021/10/19 07:12:49;;;;;;;24.60;16.58;;;;;;;;;;6244130;23;20012;-58
2021/10/19 07:15:15;;;;;;;22.58;16.15;;;;;;;;;;6245597;22;20424;-59
2021/10/19 07:17:41;;;;;;;22.63;15.80;;;;;;;;;;6245207;23;20500;-58
2021/10/19 07:20:08;;;;;;;20.95;14.25;;;;;;;;;;6245820;22;20003;-58
2021/10/19 07:22:35;;;;;;;21.60;14.25;;;;;;;;;;6243295;23;20341;-58
2021/10/19 07:25:03;;;;;;;21.52;15.05;;;;;;;;;;6244914;22;20385;-58
2021/10/19 07:27:29;;;;;;;24.63;15.38;;;;;;;;;;6245342;23;20011;-59
2021/10/19 07:29:54;;;;;;;21.73;14.15;;;;;;;;;;6245754;23;19996;-58
2021/10/19 07:32:20;;;;;;;23.20;14.75;;;;;;;;;;6244830;23;20012;-58
2021/10/19 07:34:45;;;;;;;20.85;13.65;;;;;;;;;;6245034;23;20000;-58
2021/10/19 07:37:11;;;;;;;24.33;14.50;;;;;;;;;;6245397;23;20011;-59
2021/10/19 07:39:36;;;;;;;19.33;12.90;;;;;;;;;;6244258;23;20432;-58
2021/10/19 07:42:02;;;;;;;19.17;12.68;;;;;;;;;;6245421;22;20004;-58
2021/10/19 07:44:34;;;;;;;18.60;12.98;;;;;;;;;;6245433;22;20000;-58
2021/10/19 07:46:59;;;;;;;18.77;12.65;;;;;;;;;;6245558;23;20004;-58
2021/10/19 07:49:25;;;;;;;18.88;12.50;;;;;;;;;;6244836;23;20374;-58
2021/10/19 07:51:51;;;;;;;20.25;12.57;;;;;;;;;;6243521;23;20000;-58
2021/10/19 07:54:16;;;;;;;16.05;11.30;;;;;;;;;;6245437;23;20027;-58
2021/10/19 07:56:42;;;;;;;20.20;11.23;;;;;;;;;;6245013;22;20455;-58
2021/10/19 07:59:08;;;;;;;18.23;11.63;;;;;;;;;;6244710;22;20027;-58
2021/10/19 08:01:35;;;;;;;18.13;11.05;;;;;;;;;;6245475;22;20008;-59
2021/10/19 08:04:01;;;;;;;16.30;11.68;;;;;;;;;;6244741;22;20070;-58
2021/10/19 08:06:28;;;;;;;16.92;10.25;;;;;;;;;;6244842;23;20440;-58
2021/10/19 08:08:53;;;;;;;20.33;12.57;;;;;;;;;;6245180;22;20000;-58
2021/10/19 08:11:19;;;;;;;17.55;10.93;;;;;;;;;;6246557;23;20008;-58
2021/10/19 08:13:44;;;;;;;16.70;10.90;;;;;;;;;;6247239;22;19996;-58
2021/10/19 08:16:10;;;;;;;16.55;10.30;;;;;;;;;;6246223;23;20471;-58
2021/10/19 08:18:35;;;;;;;15.38;9.73;;;;;;;;;;6245599;23;20421;-58
2021/10/19 08:21:07;;;;;;;13.52;9.18;;;;;;;;;;6245172;22;20035;-62
2021/10/19 08:23:32;;;;;;;15.00;9.70;;;;;;;;;;6245654;22;20436;-62
2021/10/19 08:25:59;;;;;;;14.65;9.25;;;;;;;;;;6244878;23;20475;-62
2021/10/19 08:28:29;;;;;;;14.20;9.13;;;;;;;;;;6245303;23;20004;-62
2021/10/19 08:34:30;;;;;;;11.23;7.50;;;;;;;;;;6247984;23;20023;-61
2021/10/19 08:40:32;;;;;;;15.07;8.23;;;;;;;;;;6247962;23;19995;-61
2021/10/19 08:46:31;;;;;;;13.82;8.05;;;;;;;;;;6247765;23;20047;-62
2021/10/19 08:52:32;;;;;;;12.40;7.97;;;;;;;;;;6247845;23;20031;-62
2021/10/19 08:58:34;;;;;;;10.80;6.85;;;;;;;;;;6247831;23;20076;-62
2021/10/19 09:07:54;;;;;;;9.80;6.47;;;;;;;;;;6248059;23;20134;-62
2021/10/19 09:13:55;;;;;;;10.70;6.50;;;;;;;;;;6247626;23;20007;-62
2021/10/19 09:19:57;;;;;;;8.70;5.43;;;;;;;;;;6247571;23;19996;-62
2021/10/19 09:26:01;;;;;;;7.20;4.72;;;;;;;;;;6247402;23;20118;-62
2021/10/19 09:32:05;;;;;;;8.63;5.50;;;;;;;;;;6247455;23;20062;-63
2021/10/19 09:38:08;;;;;;;6.32;5.10;;;;;;;;;;6247421;23;19999;-63
2021/10/19 09:44:14;;;;;;;9.68;5.28;;;;;;;;;;6247298;23;20019;-62
2021/10/19 09:50:14;;;;;;;7.75;5.38;;;;;;;;;;6247027;22;20481;-62
2021/10/19 09:56:15;;;;;;;8.25;5.32;;;;;;;;;;6247224;23;20003;-62
2021/10/19 10:02:15;;;;;;;6.25;3.95;;;;;;;;;;6247202;23;19995;-62
2021/10/19 10:11:40;;;;;;;26.45;5.63;;;;;;;;;;6247057;23;20030;-62
2021/10/19 10:17:48;;;;;;;14.15;4.38;;;;;;;;;;6247004;23;20371;-62
2021/10/19 10:27:26;;;;;;;5.57;3.88;;;;;;;;;;6243432;23;20403;-59
2021/10/19 10:29:52;;;;;;;5.15;3.95;;;;;;;;;;6241728;23;20004;-59
2021/10/19 10:32:23;;;;;;;6.53;3.90;;;;;;;;;;6242115;22;19996;-59
2021/10/19 10:35:10;;;;;;;4.80;3.67;;;;;;;;;;6242048;23;20016;-59
2021/10/19 10:37:35;;;;;;;4.65;4.15;;;;;;;;;;6241379;23;20012;-59
2021/10/19 10:40:01;;;;;;;5.10;3.97;;;;;;;;;;6242064;22;20054;-59
2021/10/19 10:42:34;;;;;;;4.95;3.72;;;;;;;;;;6241829;23;20012;-59
2021/10/19 10:44:59;;;;;;;4.85;3.42;;;;;;;;;;6240314;23;20008;-59
2021/10/19 10:47:26;;;;;;;3.45;3.00;;;;;;;;;;6241242;23;20054;-59
2021/10/19 10:49:52;;;;;;;3.80;3.17;;;;;;;;;;6241593;23;20008;-59
2021/10/19 10:52:18;;;;;;;3.85;3.00;;;;;;;;;;6242087;22;20007;-59
2021/10/19 10:54:54;;;;;;;1.88;1.77;;;;;;;;;;6241679;23;20336;-59
2021/10/19 10:57:19;;;;;;;3.92;2.67;;;;;;;;;;6240663;23;20008;-59
2021/10/19 10:59:51;;;;;;;3.67;3.15;;;;;;;;;;6240564;22;20050;-59
2021/10/19 11:02:16;;;;;;;3.10;2.90;;;;;;;;;;6241262;22;20031;-59
2021/10/19 11:04:48;;;;;;;2.75;2.55;;;;;;;;;;6240864;23;20375;-59
2021/10/19 11:07:29;;;;;;;3.58;2.58;;;;;;;;;;6240244;23;20417;-59
2021/10/19 11:09:54;;;;;;;3.60;2.60;;;;;;;;;;6241027;22;20019;-58
2021/10/19 11:12:20;;;;;;;3.22;2.92;;;;;;;;;;6241047;22;20000;-58
2021/10/19 11:14:47;;;;;;;3.20;2.90;;;;;;;;;;6239004;23;20339;-61
2021/10/19 11:17:12;;;;;;;3.00;2.80;;;;;;;;;;6241170;22;20000;-59
2021/10/19 11:19:38;;;;;;;4.30;2.72;;;;;;;;;;6239105;23;20034;-59
2021/10/19 11:22:04;;;;;;;4.05;2.95;;;;;;;;;;6241420;22;20374;-59
2021/10/19 11:24:31;;;;;;;2.92;2.70;;;;;;;;;;6241354;23;20008;-59
2021/10/19 11:26:57;;;;;;;2.88;2.65;;;;;;;;;;6241188;22;19996;-59
2021/10/19 11:29:25;;;;;;;3.47;2.03;;;;;;;;;;6241174;23;20011;-59
2021/10/19 11:31:52;;;;;;;3.08;2.47;;;;;;;;;;6241181;22;20003;-59
2021/10/19 11:34:18;;;;;;;3.60;2.90;;;;;;;;;;6239477;23;20457;-59
2021/10/19 11:36:43;;;;;;;3.20;2.90;;;;;;;;;;6241533;23;20058;-59
2021/10/19 11:39:13;;;;;;;4.45;3.30;;;;;;;;;;6241065;22;20012;-59
2021/10/19 11:41:42;;;;;;;4.28;3.10;;;;;;;;;;6240975;22;20065;-59
2021/10/19 11:44:07;;;;;;;3.88;2.90;;;;;;;;;;6241310;22;20404;-58
2021/10/19 11:46:35;;;;;;;4.05;3.10;;;;;;;;;;6242355;22;20011;-59
2021/10/19 11:49:05;;;;;;;4.25;3.10;;;;;;;;;;6241153;23;20004;-58
2021/10/19 11:51:30;;;;;;;3.65;2.70;;;;;;;;;;6243512;23;20014;-58
2021/10/19 11:53:57;;;;;;;3.33;2.75;;;;;;;;;;6243621;22;20079;-58
2021/10/19 11:56:23;;;;;;;3.53;3.10;;;;;;;;;;6243820;22;20344;-59
2021/10/19 11:58:49;;;;;;;4.13;2.97;;;;;;;;;;6243530;22;20007;-59
2021/10/19 12:01:15;;;;;;;5.07;3.03;;;;;;;;;;6243325;23;20008;-59
2021/10/19 12:03:40;;;;;;;3.78;3.03;;;;;;;;;;6241848;23;20004;-58
2021/10/19 12:06:10;;;;;;;3.72;2.83;;;;;;;;;;6243022;23;20035;-59
2021/10/19 12:08:35;;;;;;;4.80;3.42;;;;;;;;;;6243124;22;20154;-58
2021/10/19 12:11:11;;;;;;;4.20;3.10;;;;;;;;;;6243566;23;20040;-59
2021/10/19 12:13:39;;;;;;;3.83;3.03;;;;;;;;;;6243459;22;20007;-59
2021/10/19 12:16:06;;;;;;;3.50;3.20;;;;;;;;;;6243374;22;20027;-58
2021/10/19 12:18:44;;;;;;;3.88;3.10;;;;;;;;;;6242010;23;20035;-58
2021/10/19 12:21:10;;;;;;;4.57;2.95;;;;;;;;;;6240457;23;20011;-59
2021/10/19 12:23:36;;;;;;;3.08;2.78;;;;;;;;;;6242688;22;20332;-58
2021/10/19 12:26:07;;;;;;;2.55;2.33;;;;;;;;;;6242213;22;20012;-59
2021/10/19 12:28:34;;;;;;;3.13;2.63;;;;;;;;;;6242140;23;20024;-58
2021/10/19 12:30:59;;;;;;;3.17;2.83;;;;;;;;;;6241930;22;20004;-58
2021/10/19 12:33:27;;;;;;;3.10;2.80;;;;;;;;;;6241950;23;20091;-58
2021/10/19 12:35:58;;;;;;;2.78;2.50;;;;;;;;;;6243028;22;20058;-58
2021/10/19 12:38:29;;;;;;;2.88;2.20;;;;;;;;;;6243029;23;20012;-59
2021/10/19 12:40:54;;;;;;;2.38;2.17;;;;;;;;;;6242784;23;20440;-58
2021/10/19 12:43:20;;;;;;;2.20;2.00;;;;;;;;;;6242814;22;20042;-58
2021/10/19 12:45:45;;;;;;;2.22;1.98;;;;;;;;;;6242675;23;20099;-58
2021/10/19 12:48:11;;;;;;;3.17;2.13;;;;;;;;;;6242956;23;20000;-59
2021/10/19 12:50:37;;;;;;;2.53;2.05;;;;;;;;;;6242886;22;20059;-59
2021/10/19 12:53:03;;;;;;;2.33;1.90;;;;;;;;;;6243359;22;20328;-58
2021/10/19 12:55:28;;;;;;;1.83;1.65;;;;;;;;;;6243163;22;20087;-59
2021/10/19 12:57:54;;;;;;;2.33;1.98;;;;;;;;;;6242311;22;20000;-58
2021/10/19 13:00:20;;;;;;;1.83;1.73;;;;;;;;;;6242742;23;20012;-58
2021/10/19 13:02:46;;;;;;;1.80;1.70;;;;;;;;;;6242762;22;20004;-58
2021/10/19 13:05:11;;;;;;;1.55;1.40;;;;;;;;;;6242717;22;20012;-58
2021/10/19 13:07:37;;;;;;;1.88;1.77;;;;;;;;;;6242728;22;20447;-59
2021/10/19 13:10:03;;;;;;;1.77;1.67;;;;;;;;;;6243018;22;20070;-58
2021/10/19 13:12:30;;;;;;;1.98;1.77;;;;;;;;;;6242860;22;20137;-59
2021/10/19 13:14:55;;;;;;;1.90;1.80;;;;;;;;;;6243080;22;20012;-58
2021/10/19 13:17:21;;;;;;;1.55;1.45;;;;;;;;;;6242870;23;20011;-58
2021/10/19 13:19:47;;;;;;;1.83;1.73;;;;;;;;;;6242747;23;20040;-59
2021/10/19 13:22:12;;;;;;;2.33;1.77;;;;;;;;;;6242919;22;20103;-58
2021/10/19 13:24:38;;;;;;;2.17;1.70;;;;;;;;;;6242911;22;20019;-58
2021/10/19 13:27:04;;;;;;;2.85;2.05;;;;;;;;;;6242762;22;20714;-59
2021/10/19 13:29:29;;;;;;;2.75;1.92;;;;;;;;;;6242310;23;20082;-59
2021/10/19 13:31:55;;;;;;;2.55;2.15;;;;;;;;;;6243034;23;20043;-59
2021/10/19 13:34:21;;;;;;;3.38;2.15;;;;;;;;;;6242587;23;20511;-59
2021/10/19 13:36:47;;;;;;;2.30;2.10;;;;;;;;;;6242811;22;20004;-58
2021/10/19 13:39:13;;;;;;;2.08;1.98;;;;;;;;;;6242407;22;20471;-58
2021/10/19 13:41:38;;;;;;;2.20;2.00;;;;;;;;;;6242508;22;20254;-59
2021/10/19 13:44:04;;;;;;;2.50;2.08;;;;;;;;;;6242810;23;20043;-58
2021/10/19 13:46:32;;;;;;;2.60;2.38;;;;;;;;;;6242693;22;20444;-59
2021/10/19 13:48:58;;;;;;;3.60;2.38;;;;;;;;;;6242695;23;20037;-60
2021/10/19 13:51:24;;;;;;;4.00;2.50;;;;;;;;;;6242396;22;20000;-60
2021/10/19 13:53:49;;;;;;;3.30;2.55;;;;;;;;;;6242640;23;20046;-61
2021/10/19 13:56:15;;;;;;;3.85;2.75;;;;;;;;;;6242967;23;20328;-62
2021/10/19 13:58:41;;;;;;;2.97;2.60;;;;;;;;;;6242404;23;20436;-60
2021/10/19 14:01:06;;;;;;;5.53;3.20;;;;;;;;;;6242627;22;20317;-60
2021/10/19 14:03:32;;;;;;;3.03;2.70;;;;;;;;;;6242577;23;20007;-58
2021/10/19 14:06:00;;;;;;;3.83;2.85;;;;;;;;;;6242461;22;20337;-58
2021/10/19 14:08:26;;;;;;;3.10;2.60;;;;;;;;;;6241573;23;20114;-64
2021/10/19 14:10:53;;;;;;;3.53;2.80;;;;;;;;;;6241508;23;20376;-64
2021/10/19 14:13:19;;;;;;;3.60;3.30;;;;;;;;;;6242243;22;20008;-64
2021/10/19 14:15:45;;;;;;;4.05;3.20;;;;;;;;;;6242339;22;20012;-64
2021/10/19 14:18:10;;;;;;;3.70;2.95;;;;;;;;;;6242586;22;20004;-65
2021/10/19 14:20:36;;;;;;;3.28;2.97;;;;;;;;;;6241669;23;20016;-65
2021/10/19 14:23:02;;;;;;;4.97;3.60;;;;;;;;;;6241906;22;20004;-64
2021/10/19 14:25:27;;;;;;;5.35;3.20;;;;;;;;;;6242090;23;20017;-64
2021/10/19 14:27:53;;;;;;;3.65;3.22;;;;;;;;;;6242237;23;19996;-64
2021/10/19 14:30:19;;;;;;;5.32;2.97;;;;;;;;;;6241894;22;20016;-64
2021/10/19 14:32:45;;;;;;;3.35;3.05;;;;;;;;;;6244979;22;20083;-64
2021/10/19 14:35:10;;;;;;;3.40;2.78;;;;;;;;;;6241424;23;20012;-64
2021/10/19 14:37:36;;;;;;;3.38;3.08;;;;;;;;;;6242225;22;20007;-64
2021/10/19 14:40:02;;;;;;;3.25;2.72;;;;;;;;;;6240932;23;20012;-65
2021/10/19 14:42:28;;;;;;;3.55;2.80;;;;;;;;;;6242062;22;20011;-64
2021/10/19 14:44:53;;;;;;;3.28;2.60;;;;;;;;;;6241762;23;20706;-64
2021/10/19 14:47:20;;;;;;;4.18;2.88;;;;;;;;;;6241960;22;20004;-65
2021/10/19 14:49:46;;;;;;;5.20;3.85;;;;;;;;;;6241642;23;20008;-67
2021/10/19 14:52:11;;;;;;;4.93;3.38;;;;;;;;;;6242147;23;20424;-66
2021/10/19 14:54:37;;;;;;;4.22;3.13;;;;;;;;;;6242049;23;20614;-65
2021/10/19 14:57:03;;;;;;;3.45;3.03;;;;;;;;;;6242128;23;20004;-66
2021/10/19 14:59:30;;;;;;;5.93;3.30;;;;;;;;;;6241555;23;20028;-65
2021/10/19 15:01:55;;;;;;;5.95;3.25;;;;;;;;;;6241782;23;20008;-65
2021/10/19 15:04:21;;;;;;;6.30;4.13;;;;;;;;;;6241887;22;20007;-65
2021/10/19 15:06:47;;;;;;;7.63;4.25;;;;;;;;;;6241746;23;20008;-65
2021/10/19 15:09:13;;;;;;;6.63;5.18;;;;;;;;;;6241561;22;20513;-65
2021/10/19 15:11:39;;;;;;;24.75;5.00;;;;;;;;;;6241806;22;20329;-65
2021/10/19 15:14:05;;;;;;;6.57;5.07;;;;;;;;;;6240373;23;19996;-65
2021/10/19 15:16:31;;;;;;;5.07;4.03;;;;;;;;;;6241812;23;20336;-65
2021/10/19 15:18:56;;;;;;;4.25;3.78;;;;;;;;;;6241471;22;20004;-65
2021/10/19 15:21:22;;;;;;;6.15;4.72;;;;;;;;;;6241696;23;20026;-65
2021/10/19 15:23:48;;;;;;;29.52;7.03;;;;;;;;;;6241745;22;20087;-65
2021/10/19 15:26:14;;;;;;;59.10;10.98;;;;;;;;;;6241693;23;20012;-65
2021/10/19 15:28:40;;;;;;;61.78;13.43;;;;;;;;;;6241318;22;20626;-65
2021/10/19 15:31:07;;;;;;;17.88;12.55;;;;;;;;;;6240067;23;20118;-65
2021/10/19 15:33:33;;;;;;;23.88;15.73;;;;;;;;;;6240177;23;20007;-64
2021/10/19 15:35:59;;;;;;;25.58;16.67;;;;;;;;;;6241515;23;20016;-64
2021/10/19 15:38:25;;;;;;;28.58;19.00;;;;;;;;;;6241522;22;20409;-64
2021/10/19 15:44:25;;;;;;;51.30;29.42;;;;;;;;;;6246403;23;20045;-64
2021/10/19 15:50:26;;;;;;;61.60;33.50;;;;;;;;;;6246335;23;19998;-64
2021/10/19 15:56:27;;;;;;;71.60;35.55;;;;;;;;;;6246361;23;20027;-64
2021/10/19 16:02:29;;;;;;;77.40;34.78;;;;;;;;;;6246340;23;20058;-64
2021/10/19 16:12:05;;;;;;;57.20;28.35;;;;;;;;;;6246275;23;20068;-64
2021/10/19 16:18:07;;;;;;;53.13;27.23;;;;;;;;;;6246260;23;20070;-64
2021/10/19 16:24:08;;;;;;;39.30;20.63;;;;;;;;;;6246264;23;19995;-64
2021/10/19 16:30:10;;;;;;;56.47;28.38;;;;;;;;;;6241861;23;20551;-64
2021/10/19 16:32:35;;;;;;;57.53;29.67;;;;;;;;;;6242073;22;20008;-64